sensor_id;sensor_type;location;lat;lon;timestamp;temperature;humidity
24902;DHT22;31328;51.402;0.016;2022-08-19T00:01:37;20.00;91.80
24902;DHT22;31328;51.402;0.016;2022-08-19T00:04:04;20.00;91.70
24902;DHT22;31328;51.402;0.016;2022-08-19T00:06:31;20.00;91.80
24902;DHT22;31328;51.402;0.016;2022-08-19T00:08:57;20.00;92.00
24902;DHT22;31328;51.402;0.016;2022-08-19T00:11:24;20.00;91.90
24902;DHT22;31328;51.402;0.016;2022-08-19T00:13:52;20.00;92.10
24902;DHT22;31328;51.402;0.016;2022-08-19T00:16:18;20.10;92.10
24902;DHT22;31328;51.402;0.016;2022-08-19T00:18:45;20.10;92.20
24902;DHT22;31328;51.402;0.016;2022-08-19T00:21:12;20.10;92.10
24902;DHT22;31328;51.402;0.016;2022-08-19T00:23:38;20.10;92.20
24902;DHT22;31328;51.402;0.016;2022-08-19T00:26:04;20.10;92.60
24902;DHT22;31328;51.402;0.016;2022-08-19T00:28:31;20.10;92.40
24902;DHT22;31328;51.402;0.016;2022-08-19T00:30:57;20.10;92.50
24902;DHT22;31328;51.402;0.016;2022-08-19T00:33:23;20.10;92.30
24902;DHT22;31328;51.402;0.016;2022-08-19T00:35:49;20.10;92.30
24902;DHT22;31328;51.402;0.016;2022-08-19T00:38:16;20.20;92.50
24902;DHT22;31328;51.402;0.016;2022-08-19T00:40:43;20.20;92.50
24902;DHT22;31328;51.402;0.016;2022-08-19T00:43:12;20.20;92.50
24902;DHT22;31328;51.402;0.016;2022-08-19T00:45:41;20.20;92.60
24902;DHT22;31328;51.402;0.016;2022-08-19T00:48:09;20.20;92.60
24902;DHT22;31328;51.402;0.016;2022-08-19T00:50:35;20.20;92.60
24902;DHT22;31328;51.402;0.016;2022-08-19T00:53:02;20.20;92.60
24902;DHT22;31328;51.402;0.016;2022-08-19T00:55:30;20.20;92.70
24902;DHT22;31328;51.402;0.016;2022-08-19T00:58:00;20.20;92.70
24902;DHT22;31328;51.402;0.016;2022-08-19T01:00:27;20.20;92.70
24902;DHT22;31328;51.402;0.016;2022-08-19T01:02:54;20.20;92.90
24902;DHT22;31328;51.402;0.016;2022-08-19T01:05:23;20.20;92.80
24902;DHT22;31328;51.402;0.016;2022-08-19T01:07:50;20.20;92.90
24902;DHT22;31328;51.402;0.016;2022-08-19T01:10:18;20.30;92.90
24902;DHT22;31328;51.402;0.016;2022-08-19T01:12:45;20.20;93.00
24902;DHT22;31328;51.402;0.016;2022-08-19T01:15:13;20.20;93.00
24902;DHT22;31328;51.402;0.016;2022-08-19T01:17:40;20.20;93.10
24902;DHT22;31328;51.402;0.016;2022-08-19T01:20:11;20.20;93.20
24902;DHT22;31328;51.402;0.016;2022-08-19T01:25:54;20.20;93.40
24902;DHT22;31328;51.402;0.016;2022-08-19T01:28:23;20.20;93.40
24902;DHT22;31328;51.402;0.016;2022-08-19T01:30:51;20.10;93.40
24902;DHT22;31328;51.402;0.016;2022-08-19T01:33:17;20.10;93.50
24902;DHT22;31328;51.402;0.016;2022-08-19T01:35:43;20.10;93.50
24902;DHT22;31328;51.402;0.016;2022-08-19T01:38:10;20.20;93.60
24902;DHT22;31328;51.402;0.016;2022-08-19T01:40:44;20.20;93.60
24902;DHT22;31328;51.402;0.016;2022-08-19T01:43:10;20.10;93.70
24902;DHT22;31328;51.402;0.016;2022-08-19T01:45:37;20.10;93.70
24902;DHT22;31328;51.402;0.016;2022-08-19T01:48:06;20.10;93.70
24902;DHT22;31328;51.402;0.016;2022-08-19T01:50:33;20.20;93.80
24902;DHT22;31328;51.402;0.016;2022-08-19T01:53:00;20.20;93.80
24902;DHT22;31328;51.402;0.016;2022-08-19T01:55:26;20.20;93.80
24902;DHT22;31328;51.402;0.016;2022-08-19T01:57:54;20.20;93.80
24902;DHT22;31328;51.402;0.016;2022-08-19T02:00:22;20.20;93.80
24902;DHT22;31328;51.402;0.016;2022-08-19T02:02:48;20.20;93.80
24902;DHT22;31328;51.402;0.016;2022-08-19T02:05:15;20.20;93.90
24902;DHT22;31328;51.402;0.016;2022-08-19T02:07:42;20.20;93.80
24902;DHT22;31328;51.402;0.016;2022-08-19T02:10:10;20.20;93.90
24902;DHT22;31328;51.402;0.016;2022-08-19T02:12:36;20.20;93.90
24902;DHT22;31328;51.402;0.016;2022-08-19T02:15:03;20.20;94.00
24902;DHT22;31328;51.402;0.016;2022-08-19T02:17:29;20.20;94.00
24902;DHT22;31328;51.402;0.016;2022-08-19T02:19:55;20.20;94.20
24902;DHT22;31328;51.402;0.016;2022-08-19T02:22:22;20.20;94.00
24902;DHT22;31328;51.402;0.016;2022-08-19T02:24:51;20.20;94.10
24902;DHT22;31328;51.402;0.016;2022-08-19T02:27:17;20.20;94.10
24902;DHT22;31328;51.402;0.016;2022-08-19T02:29:45;20.20;94.10
24902;DHT22;31328;51.402;0.016;2022-08-19T02:32:11;20.20;94.10
24902;DHT22;31328;51.402;0.016;2022-08-19T02:34:37;20.20;94.10
24902;DHT22;31328;51.402;0.016;2022-08-19T02:37:03;20.20;94.10
24902;DHT22;31328;51.402;0.016;2022-08-19T02:39:30;20.20;94.10
24902;DHT22;31328;51.402;0.016;2022-08-19T02:41:56;20.30;94.20
24902;DHT22;31328;51.402;0.016;2022-08-19T02:44:23;20.30;94.10
24902;DHT22;31328;51.402;0.016;2022-08-19T02:46:50;20.30;94.20
24902;DHT22;31328;51.402;0.016;2022-08-19T02:49:16;20.30;94.20
24902;DHT22;31328;51.402;0.016;2022-08-19T02:51:44;20.30;94.20
24902;DHT22;31328;51.402;0.016;2022-08-19T02:54:10;20.30;94.20
24902;DHT22;31328;51.402;0.016;2022-08-19T02:56:37;20.30;94.30
24902;DHT22;31328;51.402;0.016;2022-08-19T02:59:04;20.30;94.30
24902;DHT22;31328;51.402;0.016;2022-08-19T03:01:37;20.30;94.30
24902;DHT22;31328;51.402;0.016;2022-08-19T03:04:06;20.30;94.30
24902;DHT22;31328;51.402;0.016;2022-08-19T03:06:35;20.30;94.30
24902;DHT22;31328;51.402;0.016;2022-08-19T03:09:02;20.40;94.30
24902;DHT22;31328;51.402;0.016;2022-08-19T03:11:29;20.40;94.30
24902;DHT22;31328;51.402;0.016;2022-08-19T03:13:55;20.40;94.40
24902;DHT22;31328;51.402;0.016;2022-08-19T03:16:23;20.40;94.40
24902;DHT22;31328;51.402;0.016;2022-08-19T03:18:49;20.40;94.40
24902;DHT22;31328;51.402;0.016;2022-08-19T03:21:17;20.40;94.40
24902;DHT22;31328;51.402;0.016;2022-08-19T03:23:44;20.40;94.50
24902;DHT22;31328;51.402;0.016;2022-08-19T03:26:10;20.40;94.40
24902;DHT22;31328;51.402;0.016;2022-08-19T03:28:36;20.40;94.50
24902;DHT22;31328;51.402;0.016;2022-08-19T03:31:04;20.40;94.60
24902;DHT22;31328;51.402;0.016;2022-08-19T03:33:31;20.40;94.60
24902;DHT22;31328;51.402;0.016;2022-08-19T03:36:03;20.40;94.60
24902;DHT22;31328;51.402;0.016;2022-08-19T03:38:29;20.40;94.60
24902;DHT22;31328;51.402;0.016;2022-08-19T03:40:55;20.40;94.60
24902;DHT22;31328;51.402;0.016;2022-08-19T03:43:22;20.40;94.60
24902;DHT22;31328;51.402;0.016;2022-08-19T03:45:48;20.40;94.70
24902;DHT22;31328;51.402;0.016;2022-08-19T03:48:14;20.40;94.70
24902;DHT22;31328;51.402;0.016;2022-08-19T03:50:42;20.40;94.80
24902;DHT22;31328;51.402;0.016;2022-08-19T03:53:08;20.40;95.00
24902;DHT22;31328;51.402;0.016;2022-08-19T03:55:39;20.40;95.50
24902;DHT22;31328;51.402;0.016;2022-08-19T03:58:05;20.40;95.30
24902;DHT22;31328;51.402;0.016;2022-08-19T04:00:32;20.30;95.30
24902;DHT22;31328;51.402;0.016;2022-08-19T04:02:59;20.30;95.50
24902;DHT22;31328;51.402;0.016;2022-08-19T04:05:26;20.20;95.60
24902;DHT22;31328;51.402;0.016;2022-08-19T04:07:54;20.20;95.70
24902;DHT22;31328;51.402;0.016;2022-08-19T04:10:22;20.10;95.70
24902;DHT22;31328;51.402;0.016;2022-08-19T04:12:49;20.10;95.90
24902;DHT22;31328;51.402;0.016;2022-08-19T04:15:16;20.10;96.10
24902;DHT22;31328;51.402;0.016;2022-08-19T04:17:42;20.00;96.00
24902;DHT22;31328;51.402;0.016;2022-08-19T04:20:08;20.00;96.10
24902;DHT22;31328;51.402;0.016;2022-08-19T04:22:34;20.00;96.20
24902;DHT22;31328;51.402;0.016;2022-08-19T04:25:00;20.00;96.30
24902;DHT22;31328;51.402;0.016;2022-08-19T04:27:26;20.00;96.30
24902;DHT22;31328;51.402;0.016;2022-08-19T04:29:53;20.00;96.30
24902;DHT22;31328;51.402;0.016;2022-08-19T04:32:19;20.00;96.40
24902;DHT22;31328;51.402;0.016;2022-08-19T04:34:45;19.90;96.40
24902;DHT22;31328;51.402;0.016;2022-08-19T04:37:11;20.00;96.40
24902;DHT22;31328;51.402;0.016;2022-08-19T04:39:38;19.90;96.40
24902;DHT22;31328;51.402;0.016;2022-08-19T04:42:23;19.90;96.50
24902;DHT22;31328;51.402;0.016;2022-08-19T04:45:05;19.90;96.50
24902;DHT22;31328;51.402;0.016;2022-08-19T04:47:32;19.90;96.40
24902;DHT22;31328;51.402;0.016;2022-08-19T04:49:58;19.90;96.60
24902;DHT22;31328;51.402;0.016;2022-08-19T04:52:24;19.90;96.60
24902;DHT22;31328;51.402;0.016;2022-08-19T04:54:51;19.90;96.60
24902;DHT22;31328;51.402;0.016;2022-08-19T04:57:17;19.90;96.70
24902;DHT22;31328;51.402;0.016;2022-08-19T04:59:43;19.90;96.70
24902;DHT22;31328;51.402;0.016;2022-08-19T05:02:09;19.90;96.80
24902;DHT22;31328;51.402;0.016;2022-08-19T05:04:35;19.90;96.80
24902;DHT22;31328;51.402;0.016;2022-08-19T05:07:05;19.90;96.80
24902;DHT22;31328;51.402;0.016;2022-08-19T05:09:31;19.90;96.90
24902;DHT22;31328;51.402;0.016;2022-08-19T05:11:57;19.80;96.90
24902;DHT22;31328;51.402;0.016;2022-08-19T05:14:23;19.80;96.90
24902;DHT22;31328;51.402;0.016;2022-08-19T05:16:49;19.80;97.00
24902;DHT22;31328;51.402;0.016;2022-08-19T05:19:15;19.90;97.10
24902;DHT22;31328;51.402;0.016;2022-08-19T05:22:00;19.90;97.30
24902;DHT22;31328;51.402;0.016;2022-08-19T05:24:45;19.90;97.20
24902;DHT22;31328;51.402;0.016;2022-08-19T05:27:11;19.80;97.20
24902;DHT22;31328;51.402;0.016;2022-08-19T05:29:37;19.80;97.20
24902;DHT22;31328;51.402;0.016;2022-08-19T05:32:04;19.80;97.20
24902;DHT22;31328;51.402;0.016;2022-08-19T05:34:35;19.80;97.40
24902;DHT22;31328;51.402;0.016;2022-08-19T05:37:02;19.80;97.40
24902;DHT22;31328;51.402;0.016;2022-08-19T05:39:29;19.80;97.40
24902;DHT22;31328;51.402;0.016;2022-08-19T05:41:56;19.80;97.50
24902;DHT22;31328;51.402;0.016;2022-08-19T05:44:24;19.80;97.40
24902;DHT22;31328;51.402;0.016;2022-08-19T05:46:50;19.80;97.50
24902;DHT22;31328;51.402;0.016;2022-08-19T05:49:19;19.80;97.50
24902;DHT22;31328;51.402;0.016;2022-08-19T05:51:47;19.80;97.60
24902;DHT22;31328;51.402;0.016;2022-08-19T05:54:13;19.80;97.60
24902;DHT22;31328;51.402;0.016;2022-08-19T05:56:39;19.90;97.50
24902;DHT22;31328;51.402;0.016;2022-08-19T05:59:07;19.90;97.50
24902;DHT22;31328;51.402;0.016;2022-08-19T06:01:36;19.90;97.50
24902;DHT22;31328;51.402;0.016;2022-08-19T06:04:03;19.90;97.60
24902;DHT22;31328;51.402;0.016;2022-08-19T06:06:29;20.00;97.50
24902;DHT22;31328;51.402;0.016;2022-08-19T06:08:55;20.00;97.50
24902;DHT22;31328;51.402;0.016;2022-08-19T06:11:23;20.10;97.40
24902;DHT22;31328;51.402;0.016;2022-08-19T06:13:50;20.10;97.40
24902;DHT22;31328;51.402;0.016;2022-08-19T06:16:19;20.20;97.40
24902;DHT22;31328;51.402;0.016;2022-08-19T06:18:46;20.20;97.40
24902;DHT22;31328;51.402;0.016;2022-08-19T06:21:12;20.20;97.30
24902;DHT22;31328;51.402;0.016;2022-08-19T06:23:38;20.20;97.30
24902;DHT22;31328;51.402;0.016;2022-08-19T06:26:05;20.20;97.10
24902;DHT22;31328;51.402;0.016;2022-08-19T06:28:31;20.20;97.10
24902;DHT22;31328;51.402;0.016;2022-08-19T06:30:59;20.20;97.00
24902;DHT22;31328;51.402;0.016;2022-08-19T06:33:31;20.20;97.00
24902;DHT22;31328;51.402;0.016;2022-08-19T06:35:58;20.20;97.20
24902;DHT22;31328;51.402;0.016;2022-08-19T06:38:24;20.20;96.90
24902;DHT22;31328;51.402;0.016;2022-08-19T06:40:50;20.20;96.90
24902;DHT22;31328;51.402;0.016;2022-08-19T06:43:16;20.20;96.90
24902;DHT22;31328;51.402;0.016;2022-08-19T06:45:43;20.20;96.70
24902;DHT22;31328;51.402;0.016;2022-08-19T06:48:09;20.20;96.70
24902;DHT22;31328;51.402;0.016;2022-08-19T06:50:35;20.20;96.60
24902;DHT22;31328;51.402;0.016;2022-08-19T06:53:02;20.20;96.60
24902;DHT22;31328;51.402;0.016;2022-08-19T06:55:28;20.30;96.70
24902;DHT22;31328;51.402;0.016;2022-08-19T06:57:55;20.30;96.70
24902;DHT22;31328;51.402;0.016;2022-08-19T07:00:21;20.30;96.70
24902;DHT22;31328;51.402;0.016;2022-08-19T07:02:47;20.30;96.60
24902;DHT22;31328;51.402;0.016;2022-08-19T07:05:15;20.30;96.40
24902;DHT22;31328;51.402;0.016;2022-08-19T07:07:44;20.30;96.40
24902;DHT22;31328;51.402;0.016;2022-08-19T07:10:10;20.20;96.30
24902;DHT22;31328;51.402;0.016;2022-08-19T07:12:37;20.20;96.30
24902;DHT22;31328;51.402;0.016;2022-08-19T07:15:04;20.20;96.20
24902;DHT22;31328;51.402;0.016;2022-08-19T07:17:31;20.20;96.30
24902;DHT22;31328;51.402;0.016;2022-08-19T07:19:58;20.20;96.20
24902;DHT22;31328;51.402;0.016;2022-08-19T07:22:24;20.20;96.20
24902;DHT22;31328;51.402;0.016;2022-08-19T07:24:51;20.20;96.30
24902;DHT22;31328;51.402;0.016;2022-08-19T07:27:18;20.20;96.20
24902;DHT22;31328;51.402;0.016;2022-08-19T07:29:44;20.20;96.10
24902;DHT22;31328;51.402;0.016;2022-08-19T07:32:11;20.20;96.20
24902;DHT22;31328;51.402;0.016;2022-08-19T07:34:37;20.20;96.10
24902;DHT22;31328;51.402;0.016;2022-08-19T07:37:04;20.20;96.00
24902;DHT22;31328;51.402;0.016;2022-08-19T07:39:32;20.20;96.30
24902;DHT22;31328;51.402;0.016;2022-08-19T07:41:59;20.30;96.00
24902;DHT22;31328;51.402;0.016;2022-08-19T07:44:25;20.20;95.90
24902;DHT22;31328;51.402;0.016;2022-08-19T07:46:54;20.30;95.90
24902;DHT22;31328;51.402;0.016;2022-08-19T07:49:22;20.30;95.90
24902;DHT22;31328;51.402;0.016;2022-08-19T07:51:56;20.30;95.90
24902;DHT22;31328;51.402;0.016;2022-08-19T07:54:23;20.30;95.80
24902;DHT22;31328;51.402;0.016;2022-08-19T07:56:50;20.40;95.80
24902;DHT22;31328;51.402;0.016;2022-08-19T07:59:17;20.50;95.40
24902;DHT22;31328;51.402;0.016;2022-08-19T08:01:43;20.60;95.20
24902;DHT22;31328;51.402;0.016;2022-08-19T08:04:10;20.60;94.90
24902;DHT22;31328;51.402;0.016;2022-08-19T08:06:55;20.70;94.80
24902;DHT22;31328;51.402;0.016;2022-08-19T08:09:41;20.70;94.80
24902;DHT22;31328;51.402;0.016;2022-08-19T08:12:10;20.80;94.70
24902;DHT22;31328;51.402;0.016;2022-08-19T08:14:44;20.80;94.70
24902;DHT22;31328;51.402;0.016;2022-08-19T08:17:12;20.90;94.60
24902;DHT22;31328;51.402;0.016;2022-08-19T08:19:39;21.00;94.40
24902;DHT22;31328;51.402;0.016;2022-08-19T08:22:07;21.00;94.40
24902;DHT22;31328;51.402;0.016;2022-08-19T08:24:33;21.10;94.40
24902;DHT22;31328;51.402;0.016;2022-08-19T08:27:01;21.10;94.30
24902;DHT22;31328;51.402;0.016;2022-08-19T08:29:30;21.20;94.30
24902;DHT22;31328;51.402;0.016;2022-08-19T08:31:56;21.20;94.30
24902;DHT22;31328;51.402;0.016;2022-08-19T08:34:22;21.30;94.30
24902;DHT22;31328;51.402;0.016;2022-08-19T08:36:48;21.40;94.20
24902;DHT22;31328;51.402;0.016;2022-08-19T08:39:18;21.40;94.10
24902;DHT22;31328;51.402;0.016;2022-08-19T08:44:16;21.50;94.00
24902;DHT22;31328;51.402;0.016;2022-08-19T08:51:42;21.80;93.80
24902;DHT22;31328;51.402;0.016;2022-08-19T08:54:10;21.80;93.60
24902;DHT22;31328;51.402;0.016;2022-08-19T08:56:38;21.90;93.40
24902;DHT22;31328;51.402;0.016;2022-08-19T08:59:05;21.90;93.10
24902;DHT22;31328;51.402;0.016;2022-08-19T09:01:34;21.90;93.20
24902;DHT22;31328;51.402;0.016;2022-08-19T09:04:02;21.90;93.10
24902;DHT22;31328;51.402;0.016;2022-08-19T09:06:52;21.90;93.00
24902;DHT22;31328;51.402;0.016;2022-08-19T09:09:32;21.90;93.00
24902;DHT22;31328;51.402;0.016;2022-08-19T09:12:03;21.80;93.10
24902;DHT22;31328;51.402;0.016;2022-08-19T09:14:48;21.80;93.50
24902;DHT22;31328;51.402;0.016;2022-08-19T09:17:15;21.80;93.20
24902;DHT22;31328;51.402;0.016;2022-08-19T09:19:49;21.80;93.00
24902;DHT22;31328;51.402;0.016;2022-08-19T09:22:16;21.80;92.80
24902;DHT22;31328;51.402;0.016;2022-08-19T09:24:42;21.80;92.70
24902;DHT22;31328;51.402;0.016;2022-08-19T09:27:08;21.90;92.40
24902;DHT22;31328;51.402;0.016;2022-08-19T09:29:34;21.90;92.20
24902;DHT22;31328;51.402;0.016;2022-08-19T09:32:00;22.00;92.00
24902;DHT22;31328;51.402;0.016;2022-08-19T09:34:26;22.00;92.10
24902;DHT22;31328;51.402;0.016;2022-08-19T09:36:55;22.00;92.10
24902;DHT22;31328;51.402;0.016;2022-08-19T09:39:24;22.00;92.10
24902;DHT22;31328;51.402;0.016;2022-08-19T09:41:50;22.10;92.00
24902;DHT22;31328;51.402;0.016;2022-08-19T09:44:16;22.10;91.90
24902;DHT22;31328;51.402;0.016;2022-08-19T09:46:42;22.20;91.80
24902;DHT22;31328;51.402;0.016;2022-08-19T09:49:08;22.20;91.90
24902;DHT22;31328;51.402;0.016;2022-08-19T09:51:35;22.30;91.80
24902;DHT22;31328;51.402;0.016;2022-08-19T09:54:02;22.40;91.80
24902;DHT22;31328;51.402;0.016;2022-08-19T09:56:29;22.50;91.70
24902;DHT22;31328;51.402;0.016;2022-08-19T09:58:57;22.70;91.50
24902;DHT22;31328;51.402;0.016;2022-08-19T10:01:25;22.80;91.30
24902;DHT22;31328;51.402;0.016;2022-08-19T10:03:53;22.80;91.20
24902;DHT22;31328;51.402;0.016;2022-08-19T10:06:20;22.90;90.90
24902;DHT22;31328;51.402;0.016;2022-08-19T10:08:48;22.90;91.00
24902;DHT22;31328;51.402;0.016;2022-08-19T10:11:14;22.90;90.90
24902;DHT22;31328;51.402;0.016;2022-08-19T10:13:42;23.10;90.90
24902;DHT22;31328;51.402;0.016;2022-08-19T10:16:10;22.90;90.90
24902;DHT22;31328;51.402;0.016;2022-08-19T10:18:37;23.00;91.00
24902;DHT22;31328;51.402;0.016;2022-08-19T10:21:08;23.10;90.30
24902;DHT22;31328;51.402;0.016;2022-08-19T10:23:35;23.20;90.70
24902;DHT22;31328;51.402;0.016;2022-08-19T10:26:03;23.40;90.60
24902;DHT22;31328;51.402;0.016;2022-08-19T10:28:29;23.50;90.30
24902;DHT22;31328;51.402;0.016;2022-08-19T10:30:55;23.60;90.00
24902;DHT22;31328;51.402;0.016;2022-08-19T10:33:21;23.60;90.00
24902;DHT22;31328;51.402;0.016;2022-08-19T10:35:48;23.70;89.40
24902;DHT22;31328;51.402;0.016;2022-08-19T10:38:14;23.60;89.10
24902;DHT22;31328;51.402;0.016;2022-08-19T10:40:40;23.50;88.30
24902;DHT22;31328;51.402;0.016;2022-08-19T10:43:07;23.40;89.20
24902;DHT22;31328;51.402;0.016;2022-08-19T10:45:33;23.30;89.40
24902;DHT22;31328;51.402;0.016;2022-08-19T10:47:59;23.20;89.40
24902;DHT22;31328;51.402;0.016;2022-08-19T10:50:25;23.10;89.30
24902;DHT22;31328;51.402;0.016;2022-08-19T10:53:10;23.00;89.30
24902;DHT22;31328;51.402;0.016;2022-08-19T10:55:36;22.90;89.90
24902;DHT22;31328;51.402;0.016;2022-08-19T10:58:21;22.90;89.80
24902;DHT22;31328;51.402;0.016;2022-08-19T11:00:53;22.90;89.90
24902;DHT22;31328;51.402;0.016;2022-08-19T11:03:19;22.80;89.60
24902;DHT22;31328;51.402;0.016;2022-08-19T11:05:46;22.80;89.30
24902;DHT22;31328;51.402;0.016;2022-08-19T11:08:12;22.80;89.60
24902;DHT22;31328;51.402;0.016;2022-08-19T11:10:41;22.80;89.80
24902;DHT22;31328;51.402;0.016;2022-08-19T11:13:08;22.90;89.60
24902;DHT22;31328;51.402;0.016;2022-08-19T11:15:34;22.80;89.50
24902;DHT22;31328;51.402;0.016;2022-08-19T11:18:00;22.80;89.60
24902;DHT22;31328;51.402;0.016;2022-08-19T11:20:26;22.80;89.40
24902;DHT22;31328;51.402;0.016;2022-08-19T11:22:52;22.80;89.30
24902;DHT22;31328;51.402;0.016;2022-08-19T11:25:22;22.80;89.50
24902;DHT22;31328;51.402;0.016;2022-08-19T11:27:48;22.80;89.40
24902;DHT22;31328;51.402;0.016;2022-08-19T11:30:16;22.90;89.30
24902;DHT22;31328;51.402;0.016;2022-08-19T11:32:43;22.90;88.90
24902;DHT22;31328;51.402;0.016;2022-08-19T11:35:09;23.00;88.80
24902;DHT22;31328;51.402;0.016;2022-08-19T11:37:37;23.00;88.60
24902;DHT22;31328;51.402;0.016;2022-08-19T11:40:04;23.10;88.90
24902;DHT22;31328;51.402;0.016;2022-08-19T11:42:30;23.20;88.50
24902;DHT22;31328;51.402;0.016;2022-08-19T11:45:15;23.30;88.10
24902;DHT22;31328;51.402;0.016;2022-08-19T11:47:42;23.30;87.70
24902;DHT22;31328;51.402;0.016;2022-08-19T11:50:08;23.30;87.20
24902;DHT22;31328;51.402;0.016;2022-08-19T11:52:35;23.30;87.10
24902;DHT22;31328;51.402;0.016;2022-08-19T11:55:02;23.30;87.60
24902;DHT22;31328;51.402;0.016;2022-08-19T11:57:28;23.30;87.10
24902;DHT22;31328;51.402;0.016;2022-08-19T11:59:55;23.30;86.80
24902;DHT22;31328;51.402;0.016;2022-08-19T12:02:21;23.30;87.10
24902;DHT22;31328;51.402;0.016;2022-08-19T12:04:47;23.40;87.20
24902;DHT22;31328;51.402;0.016;2022-08-19T12:07:13;23.30;87.00
24902;DHT22;31328;51.402;0.016;2022-08-19T12:09:40;23.40;87.10
24902;DHT22;31328;51.402;0.016;2022-08-19T12:12:06;23.40;86.40
24902;DHT22;31328;51.402;0.016;2022-08-19T12:14:33;23.40;86.20
24902;DHT22;31328;51.402;0.016;2022-08-19T12:17:00;23.50;85.90
24902;DHT22;31328;51.402;0.016;2022-08-19T12:19:27;23.60;85.40
24902;DHT22;31328;51.402;0.016;2022-08-19T12:21:57;23.70;84.40
24902;DHT22;31328;51.402;0.016;2022-08-19T12:24:25;23.80;84.30
24902;DHT22;31328;51.402;0.016;2022-08-19T12:26:52;23.80;83.70
24902;DHT22;31328;51.402;0.016;2022-08-19T12:29:19;23.80;83.60
24902;DHT22;31328;51.402;0.016;2022-08-19T12:31:45;23.80;82.90
24902;DHT22;31328;51.402;0.016;2022-08-19T12:34:11;23.80;82.70
24902;DHT22;31328;51.402;0.016;2022-08-19T12:36:38;23.80;82.10
24902;DHT22;31328;51.402;0.016;2022-08-19T12:39:04;23.70;81.80
24902;DHT22;31328;51.402;0.016;2022-08-19T12:41:31;23.70;81.30
24902;DHT22;31328;51.402;0.016;2022-08-19T12:43:57;23.70;81.90
24902;DHT22;31328;51.402;0.016;2022-08-19T12:46:24;23.70;80.50
24902;DHT22;31328;51.402;0.016;2022-08-19T12:48:50;23.70;81.30
24902;DHT22;31328;51.402;0.016;2022-08-19T12:51:18;23.60;80.90
24902;DHT22;31328;51.402;0.016;2022-08-19T12:53:46;23.60;80.50
24902;DHT22;31328;51.402;0.016;2022-08-19T12:56:12;23.60;80.70
24902;DHT22;31328;51.402;0.016;2022-08-19T12:58:40;23.60;80.70
24902;DHT22;31328;51.402;0.016;2022-08-19T13:01:08;23.60;80.10
24902;DHT22;31328;51.402;0.016;2022-08-19T13:03:36;23.60;80.00
24902;DHT22;31328;51.402;0.016;2022-08-19T13:06:02;23.70;79.90
24902;DHT22;31328;51.402;0.016;2022-08-19T13:08:29;23.80;79.50
24902;DHT22;31328;51.402;0.016;2022-08-19T13:10:55;23.80;79.30
24902;DHT22;31328;51.402;0.016;2022-08-19T13:13:21;23.90;78.10
24902;DHT22;31328;51.402;0.016;2022-08-19T13:15:47;23.90;77.90
24902;DHT22;31328;51.402;0.016;2022-08-19T13:18:13;23.90;77.80
24902;DHT22;31328;51.402;0.016;2022-08-19T13:20:40;23.90;77.50
24902;DHT22;31328;51.402;0.016;2022-08-19T13:23:06;24.00;76.70
24902;DHT22;31328;51.402;0.016;2022-08-19T13:25:33;24.00;76.90
24902;DHT22;31328;51.402;0.016;2022-08-19T13:27:59;24.00;76.10
24902;DHT22;31328;51.402;0.016;2022-08-19T13:30:27;24.00;76.40
24902;DHT22;31328;51.402;0.016;2022-08-19T13:33:12;24.00;76.20
24902;DHT22;31328;51.402;0.016;2022-08-19T13:35:44;24.10;76.10
24902;DHT22;31328;51.402;0.016;2022-08-19T13:38:11;24.10;75.30
24902;DHT22;31328;51.402;0.016;2022-08-19T13:40:38;24.10;75.30
24902;DHT22;31328;51.402;0.016;2022-08-19T13:43:05;24.10;75.00
24902;DHT22;31328;51.402;0.016;2022-08-19T13:45:33;24.10;74.70
24902;DHT22;31328;51.402;0.016;2022-08-19T13:48:00;24.20;74.90
24902;DHT22;31328;51.402;0.016;2022-08-19T13:50:27;24.20;74.50
24902;DHT22;31328;51.402;0.016;2022-08-19T13:52:54;24.30;74.40
24902;DHT22;31328;51.402;0.016;2022-08-19T13:55:21;24.30;73.50
24902;DHT22;31328;51.402;0.016;2022-08-19T13:57:53;24.30;73.60
24902;DHT22;31328;51.402;0.016;2022-08-19T14:00:21;24.30;73.40
24902;DHT22;31328;51.402;0.016;2022-08-19T14:02:49;24.30;73.50
24902;DHT22;31328;51.402;0.016;2022-08-19T14:05:17;24.30;73.30
24902;DHT22;31328;51.402;0.016;2022-08-19T14:07:44;24.20;73.20
24902;DHT22;31328;51.402;0.016;2022-08-19T14:10:11;24.20;73.40
24902;DHT22;31328;51.402;0.016;2022-08-19T14:12:38;24.30;72.70
24902;DHT22;31328;51.402;0.016;2022-08-19T14:15:05;24.30;70.90
24902;DHT22;31328;51.402;0.016;2022-08-19T14:17:32;24.40;71.50
24902;DHT22;31328;51.402;0.016;2022-08-19T14:20:02;24.40;71.70
24902;DHT22;31328;51.402;0.016;2022-08-19T14:22:31;24.50;71.10
24902;DHT22;31328;51.402;0.016;2022-08-19T14:24:57;24.50;71.00
24902;DHT22;31328;51.402;0.016;2022-08-19T14:27:24;24.60;70.90
24902;DHT22;31328;51.402;0.016;2022-08-19T14:29:51;24.60;70.00
24902;DHT22;31328;51.402;0.016;2022-08-19T14:32:17;24.60;69.80
24902;DHT22;31328;51.402;0.016;2022-08-19T14:34:44;24.70;69.20
24902;DHT22;31328;51.402;0.016;2022-08-19T14:37:12;24.70;67.90
24902;DHT22;31328;51.402;0.016;2022-08-19T14:39:40;24.80;68.70
24902;DHT22;31328;51.402;0.016;2022-08-19T14:42:08;24.80;68.40
24902;DHT22;31328;51.402;0.016;2022-08-19T14:44:35;24.80;68.10
24902;DHT22;31328;51.402;0.016;2022-08-19T14:47:01;24.80;67.40
24902;DHT22;31328;51.402;0.016;2022-08-19T14:49:28;24.80;67.30
24902;DHT22;31328;51.402;0.016;2022-08-19T14:51:54;24.80;67.40
24902;DHT22;31328;51.402;0.016;2022-08-19T14:54:20;24.90;66.00
24902;DHT22;31328;51.402;0.016;2022-08-19T14:56:47;24.90;66.20
24902;DHT22;31328;51.402;0.016;2022-08-19T14:59:14;24.90;64.90
24902;DHT22;31328;51.402;0.016;2022-08-19T15:01:40;24.90;65.30
24902;DHT22;31328;51.402;0.016;2022-08-19T15:04:06;24.90;64.20
24902;DHT22;31328;51.402;0.016;2022-08-19T15:06:33;24.90;64.40
24902;DHT22;31328;51.402;0.016;2022-08-19T15:08:59;24.90;64.10
24902;DHT22;31328;51.402;0.016;2022-08-19T15:11:27;24.90;62.90
24902;DHT22;31328;51.402;0.016;2022-08-19T15:13:56;24.90;62.30
24902;DHT22;31328;51.402;0.016;2022-08-19T15:16:23;24.90;62.60
24902;DHT22;31328;51.402;0.016;2022-08-19T15:18:52;24.80;62.70
24902;DHT22;31328;51.402;0.016;2022-08-19T15:21:18;24.80;62.20
24902;DHT22;31328;51.402;0.016;2022-08-19T15:23:45;24.80;62.50
24902;DHT22;31328;51.402;0.016;2022-08-19T15:26:11;24.80;61.80
24902;DHT22;31328;51.402;0.016;2022-08-19T15:28:38;24.80;61.80
24902;DHT22;31328;51.402;0.016;2022-08-19T15:31:04;24.80;61.70
24902;DHT22;31328;51.402;0.016;2022-08-19T15:33:31;24.90;61.70
24902;DHT22;31328;51.402;0.016;2022-08-19T15:35:58;24.90;61.60
24902;DHT22;31328;51.402;0.016;2022-08-19T15:38:25;24.90;61.30
24902;DHT22;31328;51.402;0.016;2022-08-19T15:40:52;24.90;59.80
24902;DHT22;31328;51.402;0.016;2022-08-19T15:43:18;24.90;60.00